createdAt,value
2023-02-19T00:00:22.023Z,21.9
2023-02-19T00:01:23.425Z,21.8
2023-02-19T00:02:24.829Z,21.9
2023-02-19T00:03:26.245Z,21.9
2023-02-19T00:04:27.696Z,21.9
2023-02-19T00:05:29.080Z,21.9
2023-02-19T00:06:30.491Z,21.8
2023-02-19T00:07:31.879Z,21.8
2023-02-19T00:08:33.294Z,21.8
2023-02-19T00:09:34.696Z,21.8
2023-02-19T00:10:36.120Z,21.9
2023-02-19T00:11:37.535Z,21.9
2023-02-19T00:12:38.948Z,21.8
2023-02-19T00:13:40.384Z,21.8
2023-02-19T00:14:41.826Z,21.9
2023-02-19T00:15:43.237Z,21.9
2023-02-19T00:16:44.680Z,21.9
2023-02-19T00:17:46.082Z,21.8
2023-02-19T00:18:47.502Z,21.9
2023-02-19T00:19:48.927Z,21.8
2023-02-19T00:20:50.329Z,21.8
2023-02-19T00:21:51.723Z,21.8
2023-02-19T00:22:53.130Z,21.9
2023-02-19T00:23:54.517Z,21.8
2023-02-19T00:24:55.908Z,21.9
2023-02-19T00:26:01.078Z,21.9
2023-02-19T00:27:19.357Z,21.9
2023-02-19T00:28:20.779Z,21.9
2023-02-19T00:29:22.243Z,21.9
2023-02-19T00:30:23.699Z,21.9
2023-02-19T00:31:25.248Z,21.9
2023-02-19T00:32:27.048Z,21.9
2023-02-19T00:33:28.462Z,21.9
2023-02-19T00:34:29.867Z,21.9
2023-02-19T00:35:31.261Z,21.8
2023-02-19T00:36:32.643Z,21.9
2023-02-19T00:37:34.050Z,21.9
2023-02-19T00:38:35.464Z,21.8
2023-02-19T00:39:36.966Z,21.9
2023-02-19T00:40:38.364Z,21.8
2023-02-19T00:41:39.758Z,21.9
2023-02-19T00:42:41.171Z,21.9
2023-02-19T00:43:42.563Z,21.9
2023-02-19T00:44:43.993Z,21.8
2023-02-19T00:45:45.397Z,21.8
2023-02-19T00:46:46.856Z,21.9
2023-02-19T00:47:48.264Z,21.8
2023-02-19T00:48:49.664Z,21.8
2023-02-19T00:49:51.056Z,21.8
2023-02-19T00:50:52.441Z,21.8
2023-02-19T00:51:53.841Z,21.8
2023-02-19T00:52:55.222Z,21.8
2023-02-19T00:53:56.615Z,21.8
2023-02-19T00:54:58.008Z,21.8
2023-02-19T00:55:59.398Z,21.8
2023-02-19T00:57:00.806Z,21.8
2023-02-19T00:58:02.192Z,21.8
2023-02-19T00:59:03.594Z,21.8
2023-02-19T01:00:05.055Z,21.8
2023-02-19T01:01:06.562Z,21.9
2023-02-19T01:02:07.987Z,21.8
2023-02-19T01:03:09.390Z,21.8
2023-02-19T01:04:10.813Z,21.8
2023-02-19T01:05:12.235Z,21.8
2023-02-19T01:06:13.629Z,21.8
2023-02-19T01:07:15.024Z,21.8
2023-02-19T01:08:16.478Z,21.8
2023-02-19T01:09:17.946Z,21.8
2023-02-19T01:10:19.356Z,21.8
2023-02-19T01:11:20.763Z,21.8
2023-02-19T01:12:22.203Z,21.8
2023-02-19T01:13:23.610Z,21.8
2023-02-19T01:14:25.015Z,21.8
2023-02-19T01:15:26.438Z,21.8
2023-02-19T01:16:27.987Z,21.8
2023-02-19T01:17:29.610Z,21.8
2023-02-19T01:18:30.994Z,21.8
2023-02-19T01:19:32.438Z,21.8
2023-02-19T01:20:33.851Z,21.8
2023-02-19T01:21:35.246Z,21.8
2023-02-19T01:22:36.672Z,21.8
2023-02-19T01:23:38.084Z,21.8
2023-02-19T01:24:39.520Z,21.8
2023-02-19T01:25:40.933Z,21.8
2023-02-19T01:26:42.316Z,21.8
2023-02-19T01:27:43.710Z,21.8
2023-02-19T01:28:45.133Z,21.8
2023-02-19T01:29:46.569Z,21.8
2023-02-19T01:30:47.997Z,21.9
2023-02-19T01:31:49.585Z,21.9
2023-02-19T01:32:51.320Z,21.8
2023-02-19T01:33:52.704Z,21.8
2023-02-19T01:34:54.139Z,21.9
2023-02-19T01:35:55.552Z,21.9
2023-02-19T01:36:56.976Z,21.9
2023-02-19T01:37:58.392Z,21.8
2023-02-19T01:38:59.792Z,21.8
2023-02-19T01:40:01.195Z,21.9
2023-02-19T01:41:02.625Z,21.8
2023-02-19T01:42:04.051Z,21.8
2023-02-19T01:43:05.463Z,21.8
2023-02-19T01:44:06.876Z,21.8
2023-02-19T01:45:08.270Z,21.8
2023-02-19T01:46:09.861Z,21.8
2023-02-19T01:47:11.437Z,21.8
2023-02-19T01:48:12.845Z,21.8
2023-02-19T01:49:14.265Z,21.8
2023-02-19T01:50:15.660Z,21.8
2023-02-19T01:51:17.058Z,21.8
2023-02-19T01:52:18.454Z,21.8
2023-02-19T01:53:19.852Z,21.8
2023-02-19T01:54:21.287Z,21.8
2023-02-19T01:55:22.681Z,21.8
2023-02-19T01:56:24.117Z,21.8
2023-02-19T01:57:25.509Z,21.8
2023-02-19T01:58:27.013Z,21.8
2023-02-19T01:59:28.418Z,21.8
2023-02-19T02:00:29.870Z,21.8
2023-02-19T02:01:31.361Z,21.8
2023-02-19T02:02:32.809Z,21.8
2023-02-19T02:03:34.203Z,21.8
2023-02-19T02:04:35.587Z,21.8
2023-02-19T02:05:36.992Z,21.8
2023-02-19T02:06:38.395Z,21.8
2023-02-19T02:07:39.808Z,21.8
2023-02-19T02:08:41.223Z,21.8
2023-02-19T02:09:42.676Z,21.8
2023-02-19T02:10:44.093Z,21.7
2023-02-19T02:11:45.510Z,21.8
2023-02-19T02:12:46.903Z,21.8
2023-02-19T02:13:48.304Z,21.8
2023-02-19T02:14:49.732Z,21.8
2023-02-19T02:15:51.136Z,21.8
2023-02-19T02:16:52.632Z,21.8
2023-02-19T02:17:54.058Z,21.8
2023-02-19T02:18:55.511Z,21.7
2023-02-19T02:19:56.925Z,21.8
2023-02-19T02:20:58.346Z,21.8
2023-02-19T02:21:59.778Z,21.7
2023-02-19T02:23:01.172Z,21.7
2023-02-19T02:24:02.581Z,21.8
2023-02-19T02:25:03.970Z,21.7
2023-02-19T02:26:05.386Z,21.8
2023-02-19T02:27:06.829Z,21.7
2023-02-19T02:28:08.235Z,21.7
2023-02-19T02:29:09.627Z,21.7
2023-02-19T02:30:11.072Z,21.7
2023-02-19T02:31:13.115Z,21.7
2023-02-19T02:32:15.486Z,21.8
2023-02-19T02:33:17.154Z,21.8
2023-02-19T02:34:18.557Z,21.8
2023-02-19T02:35:19.977Z,21.6
2023-02-19T02:36:21.387Z,21.7
2023-02-19T02:37:23.030Z,21.8
2023-02-19T02:38:24.452Z,21.8
2023-02-19T02:39:25.860Z,21.7
2023-02-19T02:40:27.250Z,21.8
2023-02-19T02:41:28.674Z,21.8
2023-02-19T02:42:30.130Z,21.8
2023-02-19T02:43:31.564Z,21.8
2023-02-19T02:44:32.988Z,21.8
2023-02-19T02:45:34.388Z,21.8
2023-02-19T02:46:35.886Z,21.8
2023-02-19T02:47:37.343Z,21.8
2023-02-19T02:48:38.752Z,21.8
2023-02-19T02:49:40.188Z,21.8
2023-02-19T02:50:41.621Z,21.8
2023-02-19T02:51:43.026Z,21.8
2023-02-19T02:52:44.421Z,21.8
2023-02-19T02:53:45.832Z,21.8
2023-02-19T02:54:47.205Z,21.8
2023-02-19T02:55:48.601Z,21.8
2023-02-19T02:56:50.079Z,21.8
2023-02-19T02:57:51.498Z,21.8
2023-02-19T02:58:52.915Z,21.8
2023-02-19T02:59:54.347Z,21.8
2023-02-19T03:00:55.760Z,21.8
2023-02-19T03:01:57.285Z,21.8
2023-02-19T03:02:58.667Z,21.8
2023-02-19T03:04:00.074Z,21.8
2023-02-19T03:05:01.488Z,21.8
2023-02-19T03:06:02.879Z,21.8
2023-02-19T03:07:04.314Z,21.8
2023-02-19T03:08:05.719Z,21.8
2023-02-19T03:09:07.143Z,21.8
2023-02-19T03:10:08.587Z,21.8
2023-02-19T03:11:10.196Z,21.8
2023-02-19T03:12:12.215Z,21.8
2023-02-19T03:13:13.652Z,21.8
2023-02-19T03:14:15.064Z,21.8
2023-02-19T03:15:16.529Z,21.8
2023-02-19T03:16:17.953Z,21.8
2023-02-19T03:17:19.393Z,21.8
2023-02-19T03:18:20.793Z,21.8
2023-02-19T03:19:22.222Z,21.8
2023-02-19T03:20:23.655Z,21.8
2023-02-19T03:21:25.068Z,21.7
2023-02-19T03:22:26.474Z,21.8
2023-02-19T03:23:27.866Z,21.8
2023-02-19T03:24:29.279Z,21.8
2023-02-19T03:25:30.712Z,21.8
2023-02-19T03:26:32.107Z,21.8
2023-02-19T03:27:33.523Z,21.8
2023-02-19T03:28:34.952Z,21.8
2023-02-19T03:29:36.369Z,21.8
2023-02-19T03:30:37.856Z,21.8
2023-02-19T03:31:39.516Z,21.8
2023-02-19T03:32:41.211Z,21.8
2023-02-19T03:33:42.616Z,21.8
2023-02-19T03:34:44.009Z,21.8
2023-02-19T03:35:45.404Z,21.8
2023-02-19T03:36:46.801Z,21.8
2023-02-19T03:37:48.221Z,21.8
2023-02-19T03:38:49.636Z,21.8
2023-02-19T03:39:51.038Z,21.8
2023-02-19T03:40:52.422Z,21.8
2023-02-19T03:41:53.825Z,21.8
2023-02-19T03:42:56.235Z,21.8
2023-02-19T03:43:57.763Z,21.8
2023-02-19T03:44:59.159Z,21.8
2023-02-19T03:46:00.602Z,21.9
2023-02-19T03:47:02.088Z,21.8
2023-02-19T03:48:03.470Z,21.8
2023-02-19T03:49:04.888Z,21.8
2023-02-19T03:50:06.289Z,21.8
2023-02-19T03:51:07.986Z,21.8
2023-02-19T03:52:09.931Z,21.8
2023-02-19T03:53:11.324Z,21.8
2023-02-19T03:54:12.723Z,21.8
2023-02-19T03:55:14.100Z,21.8
2023-02-19T03:56:15.493Z,21.8
2023-02-19T03:57:16.883Z,21.8
2023-02-19T03:58:18.295Z,21.8
2023-02-19T03:59:19.724Z,21.7
2023-02-19T04:00:21.144Z,21.8
2023-02-19T04:01:22.529Z,21.8
2023-02-19T04:02:23.956Z,21.8
2023-02-19T04:03:25.420Z,21.8
2023-02-19T04:04:26.859Z,21.8
2023-02-19T04:05:28.302Z,21.8
2023-02-19T04:06:29.687Z,21.9
2023-02-19T04:07:31.078Z,21.8
2023-02-19T04:08:32.485Z,21.8
2023-02-19T04:09:33.889Z,21.8
2023-02-19T04:10:35.258Z,21.8
2023-02-19T04:11:36.617Z,21.9
2023-02-19T04:12:37.986Z,21.9
2023-02-19T04:13:39.396Z,21.9
2023-02-19T04:14:40.808Z,21.9
2023-02-19T04:15:42.234Z,21.9
2023-02-19T04:16:43.657Z,21.9
2023-02-19T04:17:45.112Z,21.8
2023-02-19T04:18:46.506Z,21.8
2023-02-19T04:19:47.903Z,21.8
2023-02-19T04:20:49.283Z,21.9
2023-02-19T04:21:50.668Z,21.8
2023-02-19T04:22:52.068Z,21.8
2023-02-19T04:23:53.443Z,21.9
2023-02-19T04:24:54.831Z,21.9
2023-02-19T04:25:56.263Z,21.9
2023-02-19T04:26:57.699Z,21.9
2023-02-19T04:27:59.102Z,22
2023-02-19T04:29:00.499Z,21.9
2023-02-19T04:30:01.963Z,21.9
2023-02-19T04:31:03.506Z,21.9
2023-02-19T04:32:05.119Z,21.9
2023-02-19T04:33:06.640Z,21.9
2023-02-19T04:34:08.050Z,21.9
2023-02-19T04:35:09.447Z,22
2023-02-19T04:36:10.874Z,22
2023-02-19T04:37:12.284Z,21.8
2023-02-19T04:38:13.692Z,21.8
2023-02-19T04:39:15.063Z,21.9
2023-02-19T04:40:16.449Z,21.9
2023-02-19T04:41:17.851Z,21.9
2023-02-19T04:42:19.273Z,22
2023-02-19T04:43:20.666Z,22
2023-02-19T04:44:22.082Z,22
2023-02-19T04:45:23.467Z,22
2023-02-19T04:46:24.953Z,22
2023-02-19T04:47:26.501Z,22
2023-02-19T04:48:27.898Z,22
2023-02-19T04:49:32.287Z,22
2023-02-19T04:50:33.694Z,22.1
2023-02-19T04:51:35.166Z,22.1
2023-02-19T04:52:36.590Z,22
2023-02-19T04:53:38.003Z,22.1
2023-02-19T04:54:39.396Z,22
2023-02-19T04:55:40.821Z,22
2023-02-19T04:56:42.258Z,22
2023-02-19T04:57:43.711Z,22
2023-02-19T04:58:45.106Z,22
2023-02-19T04:59:46.487Z,22
2023-02-19T05:00:47.872Z,22
2023-02-19T05:01:49.343Z,22.1
2023-02-19T05:02:50.751Z,22
2023-02-19T05:03:52.175Z,22
2023-02-19T05:04:53.616Z,22
2023-02-19T05:05:55.014Z,22
2023-02-19T05:06:56.396Z,22
2023-02-19T05:07:57.770Z,22
2023-02-19T05:08:59.304Z,22
2023-02-19T05:10:00.688Z,22
2023-02-19T05:11:02.095Z,22
2023-02-19T05:12:03.508Z,22.1
2023-02-19T05:13:04.923Z,21.9
2023-02-19T05:14:06.324Z,21.8
2023-02-19T05:15:07.749Z,21.7
2023-02-19T05:16:09.178Z,21.6
2023-02-19T05:17:10.737Z,21.6
2023-02-19T05:18:12.142Z,21.6
2023-02-19T05:19:13.525Z,21.5
2023-02-19T05:20:14.920Z,21.5
2023-02-19T05:21:16.302Z,21.5
2023-02-19T05:22:17.724Z,21.5
2023-02-19T05:23:19.151Z,21.4
2023-02-19T05:24:20.579Z,21.4
2023-02-19T05:25:21.989Z,21.4
2023-02-19T05:26:23.402Z,21.4
2023-02-19T05:27:24.846Z,21.4
2023-02-19T05:28:26.239Z,21.4
2023-02-19T05:29:27.628Z,21.4
2023-02-19T05:30:29.029Z,21.3
2023-02-19T05:31:30.616Z,21.3
2023-02-19T05:32:32.338Z,21.3
2023-02-19T05:33:33.761Z,21.3
2023-02-19T05:34:35.176Z,21.3
2023-02-19T05:35:36.568Z,21.4
2023-02-19T05:36:37.956Z,21.2
2023-02-19T05:37:39.359Z,21.3
2023-02-19T05:38:40.780Z,21.3
2023-02-19T05:39:42.203Z,21.3
2023-02-19T05:40:43.598Z,21.3
2023-02-19T05:41:44.993Z,21.3
2023-02-19T05:42:46.418Z,21.3
2023-02-19T05:43:47.863Z,21.3
2023-02-19T05:44:49.410Z,21.4
2023-02-19T05:45:50.956Z,21.4
2023-02-19T05:46:52.382Z,21.4
2023-02-19T05:47:53.806Z,21.4
2023-02-19T05:48:55.237Z,21.4
2023-02-19T05:49:56.624Z,21.4
2023-02-19T05:50:58.038Z,21.4
2023-02-19T05:51:59.444Z,21.3
2023-02-19T05:53:00.838Z,21.4
2023-02-19T05:54:02.245Z,21.4
2023-02-19T05:55:03.634Z,21.5
2023-02-19T05:56:05.110Z,21.6
2023-02-19T05:57:06.528Z,21.5
2023-02-19T05:58:07.926Z,21.6
2023-02-19T05:59:09.338Z,21.6
2023-02-19T06:00:10.755Z,21.5
2023-02-19T06:01:12.267Z,21.6
2023-02-19T06:02:13.773Z,21.5
2023-02-19T06:03:15.176Z,21.6
2023-02-19T06:04:16.591Z,21.5
2023-02-19T06:05:18.009Z,21.5
2023-02-19T06:06:19.438Z,21.5
2023-02-19T06:07:20.844Z,21.5
2023-02-19T06:08:22.237Z,21.6
2023-02-19T06:09:23.620Z,21.6
2023-02-19T06:10:25.043Z,21.6
2023-02-19T06:11:26.453Z,21.6
2023-02-19T06:12:27.874Z,21.6
2023-02-19T06:13:29.267Z,21.6
2023-02-19T06:14:30.663Z,21.5
2023-02-19T06:15:32.055Z,21.6
2023-02-19T06:16:33.460Z,21.5
2023-02-19T06:17:34.872Z,21.6
2023-02-19T06:18:36.269Z,21.4
2023-02-19T06:19:37.713Z,21.6
2023-02-19T06:20:39.125Z,21.6
2023-02-19T06:21:40.729Z,21.6
2023-02-19T06:22:42.134Z,21.6
2023-02-19T06:23:43.526Z,21.6
2023-02-19T06:24:44.926Z,21.6
2023-02-19T06:25:46.315Z,21.6
2023-02-19T06:26:47.721Z,21.6
2023-02-19T06:27:49.121Z,21.6
2023-02-19T06:28:50.528Z,21.6
2023-02-19T06:29:51.912Z,21.6
2023-02-19T06:30:53.297Z,21.6
2023-02-19T06:31:54.780Z,21.6
2023-02-19T06:32:56.506Z,21.6
2023-02-19T06:33:57.901Z,21.6
2023-02-19T06:34:59.334Z,21.6
2023-02-19T06:36:00.728Z,21.6
2023-02-19T06:37:02.168Z,21.6
2023-02-19T06:38:03.577Z,21.6
2023-02-19T06:39:04.952Z,21.6
2023-02-19T06:40:06.366Z,21.6
2023-02-19T06:41:08.006Z,21.6
2023-02-19T06:42:10.011Z,21.6
2023-02-19T06:43:11.418Z,21.6
2023-02-19T06:44:12.812Z,21.6
2023-02-19T06:45:14.196Z,21.6
2023-02-19T06:46:15.679Z,21.6
2023-02-19T06:47:17.217Z,21.6
2023-02-19T06:48:18.600Z,21.7
2023-02-19T06:49:19.993Z,21.7
2023-02-19T06:50:21.381Z,21.7
2023-02-19T06:51:22.784Z,21.7
2023-02-19T06:52:24.182Z,21.7
2023-02-19T06:53:25.569Z,21.7
2023-02-19T06:54:26.958Z,21.7
2023-02-19T06:55:28.367Z,21.7
2023-02-19T06:56:29.758Z,21.7
2023-02-19T06:57:31.197Z,21.7
2023-02-19T06:58:32.659Z,21.8
2023-02-19T06:59:34.090Z,21.8
2023-02-19T07:00:35.512Z,21.9
2023-02-19T07:01:36.986Z,21.6
2023-02-19T07:02:38.400Z,21.8
2023-02-19T07:03:39.811Z,21.8
2023-02-19T07:04:41.216Z,21.6
2023-02-19T07:05:42.617Z,21.7
2023-02-19T07:06:44.011Z,21.6
2023-02-19T07:07:45.414Z,21.5
2023-02-19T07:08:46.825Z,21.5
2023-02-19T07:09:48.249Z,21.5
2023-02-19T07:10:49.627Z,21.5
2023-02-19T07:11:50.996Z,21.6
2023-02-19T07:12:52.370Z,21.5
2023-02-19T07:13:53.754Z,21.6
2023-02-19T07:14:55.196Z,21.5
2023-02-19T07:15:56.594Z,21.6
2023-02-19T07:16:57.997Z,21.6
2023-02-19T07:17:59.403Z,21.6
2023-02-19T07:19:00.802Z,21.6
2023-02-19T07:20:02.201Z,21.6
2023-02-19T07:21:03.627Z,21.6
2023-02-19T07:22:05.006Z,21.5
2023-02-19T07:23:06.399Z,21.6
2023-02-19T07:24:07.788Z,21.6
2023-02-19T07:25:09.198Z,21.6
2023-02-19T07:26:10.630Z,21.6
2023-02-19T07:27:12.043Z,21.7
2023-02-19T07:28:13.441Z,21.6
2023-02-19T07:29:14.834Z,21.8
2023-02-19T07:30:16.266Z,21.6
2023-02-19T07:31:17.810Z,21.7
2023-02-19T07:32:19.668Z,21.8
2023-02-19T07:33:21.078Z,21.7
2023-02-19T07:34:22.501Z,21.7
2023-02-19T07:35:23.906Z,21.6
2023-02-19T07:36:25.336Z,21.6
2023-02-19T07:37:26.757Z,21.6
2023-02-19T07:38:28.130Z,21.7
2023-02-19T07:39:29.533Z,21.6
2023-02-19T07:40:30.942Z,21.8
2023-02-19T07:41:32.335Z,21.7
2023-02-19T07:42:33.727Z,21.9
2023-02-19T07:43:35.132Z,21.8
2023-02-19T07:44:36.556Z,21.7
2023-02-19T07:45:37.985Z,21.7
2023-02-19T07:46:39.551Z,21.8
2023-02-19T07:47:40.972Z,21.8
2023-02-19T07:48:42.413Z,21.7
2023-02-19T07:49:43.848Z,21.7
2023-02-19T07:50:45.271Z,21.8
2023-02-19T07:51:46.698Z,21.8
2023-02-19T07:52:48.121Z,21.9
2023-02-19T07:53:49.524Z,22
2023-02-19T07:54:50.928Z,21.9
2023-02-19T07:55:52.302Z,21.8
2023-02-19T07:56:53.723Z,21.8
2023-02-19T07:57:55.130Z,21.8
2023-02-19T07:58:56.504Z,21.8
2023-02-19T07:59:57.906Z,21.8
2023-02-19T08:00:59.322Z,21.9
2023-02-19T08:02:00.757Z,21.7
2023-02-19T08:03:02.235Z,21.9
2023-02-19T08:04:03.715Z,21.9
2023-02-19T08:05:05.109Z,21.9
2023-02-19T08:06:06.517Z,21.9
2023-02-19T08:07:07.938Z,21.9
2023-02-19T08:08:09.470Z,21.9
2023-02-19T08:09:10.902Z,21.9
2023-02-19T08:10:12.313Z,22
2023-02-19T08:11:13.773Z,22.1
2023-02-19T08:12:15.168Z,22.1
2023-02-19T08:13:16.581Z,22.1
2023-02-19T08:14:18.006Z,22.1
2023-02-19T08:15:21.553Z,22
2023-02-19T08:16:33.450Z,22
2023-02-19T08:17:44.772Z,22
2023-02-19T08:18:46.200Z,21.9
2023-02-19T08:19:47.634Z,21.9
2023-02-19T08:20:49.033Z,21.9
2023-02-19T08:21:50.423Z,21.9
2023-02-19T08:22:51.856Z,21.9
2023-02-19T08:23:53.281Z,21.9
2023-02-19T08:24:54.716Z,22
2023-02-19T08:25:56.129Z,22
2023-02-19T08:26:57.532Z,22
2023-02-19T08:27:58.926Z,21.9
2023-02-19T08:29:00.341Z,21.9
2023-02-19T08:30:01.766Z,21.8
2023-02-19T08:31:03.352Z,21.8
2023-02-19T08:32:05.025Z,21.9
2023-02-19T08:33:06.500Z,21.8
2023-02-19T08:34:07.905Z,21.9
2023-02-19T08:35:09.301Z,21.9
2023-02-19T08:36:10.707Z,21.9
2023-02-19T08:37:12.123Z,21.9
2023-02-19T08:38:13.547Z,21.8
2023-02-19T08:39:14.940Z,21.8
2023-02-19T08:40:16.333Z,21.8
2023-02-19T08:41:17.728Z,21.9
2023-02-19T08:42:19.144Z,21.8
2023-02-19T08:43:20.546Z,21.8
2023-02-19T08:44:22.003Z,21.8
2023-02-19T08:45:23.476Z,21.9
2023-02-19T08:46:25.010Z,21.9
2023-02-19T08:47:26.589Z,21.9
2023-02-19T08:48:28.016Z,22
2023-02-19T08:49:29.446Z,22.2
2023-02-19T08:50:30.833Z,22.2
2023-02-19T08:51:32.255Z,22.4
2023-02-19T08:52:33.658Z,22.4
2023-02-19T08:53:35.056Z,22.3
2023-02-19T08:54:37.293Z,22.3
2023-02-19T08:55:38.870Z,22.2
2023-02-19T08:56:40.266Z,22.6
2023-02-19T08:57:41.748Z,22.6
2023-02-19T08:58:43.123Z,22.5
2023-02-19T08:59:44.560Z,22.6
2023-02-19T09:00:45.942Z,22.5
2023-02-19T09:01:47.420Z,22.4
2023-02-19T09:02:48.845Z,22.4
2023-02-19T09:03:50.256Z,22.4
2023-02-19T09:04:51.705Z,22.5
2023-02-19T09:05:53.089Z,22.5
2023-02-19T09:06:54.482Z,22.5
2023-02-19T09:07:55.866Z,22.6
2023-02-19T09:08:57.285Z,22.7
2023-02-19T09:09:58.688Z,22.7
2023-02-19T09:11:00.111Z,22.6
2023-02-19T09:12:01.542Z,22.6
2023-02-19T09:13:02.966Z,22.6
2023-02-19T09:14:04.510Z,22.6
2023-02-19T09:15:05.915Z,22.6
2023-02-19T09:16:07.378Z,22.7
2023-02-19T09:17:09.051Z,22.6
2023-02-19T09:18:10.457Z,22.6
2023-02-19T09:19:11.844Z,22.4
2023-02-19T09:20:13.244Z,22.4
2023-02-19T09:21:14.654Z,22.4
2023-02-19T09:22:16.077Z,22.4
2023-02-19T09:23:17.470Z,22.6
2023-02-19T09:24:18.852Z,22.6
2023-02-19T09:25:20.249Z,22.6
2023-02-19T09:26:21.643Z,22.6
2023-02-19T09:27:23.049Z,22.6
2023-02-19T09:28:24.496Z,22.6
2023-02-19T09:29:25.914Z,22.6
2023-02-19T09:30:27.375Z,22.6
2023-02-19T09:31:28.946Z,22.6
2023-02-19T09:32:30.556Z,22.6
2023-02-19T09:33:31.971Z,22.7
2023-02-19T09:34:33.374Z,22.6
2023-02-19T09:35:34.972Z,22.6
2023-02-19T09:36:36.376Z,22.6
2023-02-19T09:37:37.757Z,22.6
2023-02-19T09:38:39.151Z,22.6
2023-02-19T09:39:40.649Z,22.6
2023-02-19T09:40:42.037Z,22.5
2023-02-19T09:41:43.436Z,22.6
2023-02-19T09:42:44.827Z,22.5
2023-02-19T09:43:46.207Z,22.4
2023-02-19T09:44:47.597Z,22.5
2023-02-19T09:45:49.009Z,22.4
2023-02-19T09:46:50.414Z,22.5
2023-02-19T09:47:51.808Z,22.6
2023-02-19T09:48:53.191Z,22.6
2023-02-19T09:49:54.584Z,22.8
2023-02-19T09:50:55.991Z,22.6
2023-02-19T09:51:57.363Z,22.6
2023-02-19T09:52:58.776Z,22.5
2023-02-19T09:54:00.285Z,22.4
2023-02-19T09:55:01.705Z,22.4
2023-02-19T09:56:03.119Z,22.6
2023-02-19T09:57:04.534Z,22.6
2023-02-19T09:58:06.685Z,22.7
2023-02-19T09:59:08.068Z,22.6
2023-02-19T10:00:10.722Z,22.7
2023-02-19T10:01:12.638Z,23
2023-02-19T10:02:14.779Z,22.7
2023-02-19T10:03:16.662Z,22.5
2023-02-19T10:04:18.083Z,22.4
2023-02-19T10:05:19.500Z,22.4
2023-02-19T10:06:21.071Z,22.1
2023-02-19T10:07:22.479Z,22.3
2023-02-19T10:08:23.892Z,22.5
2023-02-19T10:09:25.321Z,22.4
2023-02-19T10:10:26.731Z,22.5
2023-02-19T10:11:28.163Z,22.6
2023-02-19T10:12:29.809Z,22.6
2023-02-19T10:13:31.216Z,22.7
2023-02-19T10:14:32.621Z,22.7
2023-02-19T10:15:34.055Z,22.7
2023-02-19T10:16:35.540Z,22.6
2023-02-19T10:17:36.957Z,22.6
2023-02-19T10:18:38.332Z,22.6
2023-02-19T10:19:39.736Z,22.6
2023-02-19T10:20:41.138Z,22.5
2023-02-19T10:21:42.739Z,22.5
2023-02-19T10:22:44.159Z,22.6
2023-02-19T10:23:45.541Z,22.6
2023-02-19T10:24:46.966Z,22.5
2023-02-19T10:25:48.519Z,22.6
2023-02-19T10:26:49.943Z,22.5
2023-02-19T10:27:51.346Z,22.5
2023-02-19T10:28:52.775Z,22.5
2023-02-19T10:29:54.190Z,22.5
2023-02-19T10:30:55.715Z,22.4
2023-02-19T10:31:57.218Z,22.4
2023-02-19T10:32:58.928Z,22.4
2023-02-19T10:34:00.360Z,22.5
2023-02-19T10:35:01.865Z,22.4
2023-02-19T10:36:03.267Z,22.4
2023-02-19T10:37:04.656Z,22.4
2023-02-19T10:38:06.075Z,22.4
2023-02-19T10:39:07.485Z,22.4
2023-02-19T10:40:09.008Z,22.4
2023-02-19T10:41:10.938Z,22.6
2023-02-19T10:42:12.816Z,22.3
2023-02-19T10:43:14.229Z,22.4
2023-02-19T10:44:15.642Z,22.3
2023-02-19T10:45:17.159Z,22.4
2023-02-19T10:46:18.780Z,22.4
2023-02-19T10:47:20.378Z,22.4
2023-02-19T10:48:21.949Z,22.4
2023-02-19T10:49:23.342Z,22.3
2023-02-19T10:50:24.736Z,22.2
2023-02-19T10:51:26.123Z,22.2
2023-02-19T10:52:27.527Z,22.2
2023-02-19T10:53:28.970Z,22.2
2023-02-19T10:54:30.421Z,22.1
2023-02-19T10:55:31.948Z,22.1
2023-02-19T10:56:33.342Z,22.1
2023-02-19T10:57:34.764Z,22.1
2023-02-19T10:58:36.189Z,22.1
2023-02-19T10:59:37.585Z,22
2023-02-19T11:00:39.007Z,22.1
2023-02-19T11:01:40.424Z,22.1
2023-02-19T11:02:42.038Z,22.1
2023-02-19T11:03:43.432Z,22.1
2023-02-19T11:04:44.869Z,22.1
2023-02-19T11:05:46.372Z,22.1
2023-02-19T11:06:47.777Z,22.1
2023-02-19T11:07:49.185Z,22
2023-02-19T11:08:50.591Z,21.9
2023-02-19T11:09:52.024Z,22
2023-02-19T11:10:53.422Z,22
2023-02-19T11:11:54.840Z,22
2023-02-19T11:12:56.253Z,21.9
2023-02-19T11:13:57.669Z,21.9
2023-02-19T11:14:59.061Z,21.9
2023-02-19T11:16:00.650Z,21.9
2023-02-19T11:17:02.292Z,21.9
2023-02-19T11:18:03.703Z,21.9
2023-02-19T11:19:05.087Z,22
2023-02-19T11:20:06.512Z,22
2023-02-19T11:21:07.948Z,21.9
2023-02-19T11:22:09.472Z,21.8
2023-02-19T11:23:10.880Z,21.9
2023-02-19T11:24:12.273Z,21.9
2023-02-19T11:25:13.664Z,21.9
2023-02-19T11:26:15.037Z,21.9
2023-02-19T11:27:16.448Z,22
2023-02-19T11:28:17.837Z,21.9
2023-02-19T11:29:19.236Z,21.8
2023-02-19T11:30:20.669Z,21.9
2023-02-19T11:31:22.419Z,21.8
2023-02-19T11:32:24.161Z,21.9
2023-02-19T11:33:25.563Z,21.8
2023-02-19T11:34:27.009Z,21.8
2023-02-19T11:35:28.432Z,21.8
2023-02-19T11:36:30.507Z,21.8
2023-02-19T11:37:32.360Z,21.7
2023-02-19T11:38:33.785Z,21.8
2023-02-19T11:39:35.182Z,21.7
2023-02-19T11:40:36.604Z,21.7
2023-02-19T11:41:38.017Z,21.7
2023-02-19T11:42:39.392Z,21.8
2023-02-19T11:43:40.787Z,21.7
2023-02-19T11:44:42.172Z,21.7
2023-02-19T11:45:43.556Z,21.6
2023-02-19T11:46:45.012Z,21.6
2023-02-19T11:47:46.483Z,21.6
2023-02-19T11:48:47.898Z,21.6
2023-02-19T11:49:49.312Z,21.7
2023-02-19T11:50:50.697Z,21.6
2023-02-19T11:51:52.805Z,21.6
2023-02-19T11:52:54.364Z,21.6
2023-02-19T11:53:55.759Z,21.6
2023-02-19T11:54:57.152Z,21.6
2023-02-19T11:55:58.547Z,21.6
2023-02-19T11:56:59.962Z,21.6
2023-02-19T11:58:01.386Z,21.5
2023-02-19T11:59:02.805Z,21.5
2023-02-19T12:00:04.226Z,21.6
2023-02-19T12:01:05.642Z,21.6
2023-02-19T12:02:07.096Z,21.6
2023-02-19T12:03:08.612Z,21.6
2023-02-19T12:04:10.026Z,21.5
2023-02-19T12:05:11.454Z,21.6
2023-02-19T12:06:13.050Z,21.4
2023-02-19T12:07:16.820Z,21.4
2023-02-19T12:08:18.318Z,21.5
2023-02-19T12:09:19.722Z,21.5
2023-02-19T12:10:21.132Z,21.5
2023-02-19T12:11:22.543Z,21.5
2023-02-19T12:12:23.955Z,21.5
2023-02-19T12:13:25.543Z,21.5
2023-02-19T12:14:26.922Z,21.6
2023-02-19T12:15:28.363Z,21.5
2023-02-19T12:16:29.831Z,21.5
2023-02-19T12:17:31.442Z,21.5
2023-02-19T12:18:33.909Z,21.5
2023-02-19T12:19:36.120Z,21.4
2023-02-19T12:20:37.519Z,21.5
2023-02-19T12:21:38.930Z,21.4
2023-02-19T12:22:40.343Z,21.5
2023-02-19T12:23:41.737Z,21.4
2023-02-19T12:24:43.140Z,21.4
2023-02-19T12:25:44.550Z,21.3
2023-02-19T12:26:45.971Z,21.3
2023-02-19T12:27:47.568Z,21.3
2023-02-19T12:28:48.972Z,21.4
2023-02-19T12:29:50.376Z,21.3
2023-02-19T12:30:51.987Z,21.4
2023-02-19T12:31:53.608Z,21.4
2023-02-19T12:32:55.093Z,21.3
2023-02-19T12:33:56.547Z,21.3
2023-02-19T12:34:57.972Z,21.3
2023-02-19T12:35:59.366Z,21.2
2023-02-19T12:37:00.738Z,21.3
2023-02-19T12:38:02.143Z,21.2
2023-02-19T12:39:03.538Z,21.3
2023-02-19T12:40:05.015Z,21.2
2023-02-19T12:41:06.428Z,21.2
2023-02-19T12:42:07.840Z,21.3
2023-02-19T12:43:09.242Z,21.3
2023-02-19T12:44:10.691Z,21.3
2023-02-19T12:45:12.101Z,21.3
2023-02-19T12:46:13.956Z,21.2
2023-02-19T12:47:16.347Z,21.2
2023-02-19T12:48:17.892Z,21.3
2023-02-19T12:49:19.302Z,21.2
2023-02-19T12:50:20.703Z,21.3
2023-02-19T12:51:22.106Z,21.3
2023-02-19T12:52:23.538Z,21.3
2023-02-19T12:53:24.946Z,21.3
2023-02-19T12:54:26.337Z,21.4
2023-02-19T12:55:27.762Z,21.4
2023-02-19T12:56:29.169Z,21.3
2023-02-19T12:57:30.577Z,21.2
2023-02-19T12:58:31.957Z,21.3
2023-02-19T12:59:33.374Z,21.3
2023-02-19T13:00:34.795Z,21.3
2023-02-19T13:01:36.251Z,21.1
2023-02-19T13:02:37.853Z,21.2
2023-02-19T13:03:39.527Z,21.2
2023-02-19T13:04:40.937Z,21.2
2023-02-19T13:05:42.296Z,21.2
2023-02-19T13:06:43.723Z,21.3
2023-02-19T13:07:45.164Z,21.2
2023-02-19T13:09:05.240Z,21.3
2023-02-19T13:10:08.465Z,21.2
2023-02-19T13:11:10.242Z,21.3
2023-02-19T13:12:12.515Z,21.3
2023-02-19T13:13:13.924Z,21.3
2023-02-19T13:14:15.304Z,21.4
2023-02-19T13:15:16.746Z,21.4
2023-02-19T13:16:18.961Z,21.3
2023-02-19T13:17:20.993Z,21.4
2023-02-19T13:18:22.865Z,21.4
2023-02-19T13:19:24.439Z,21.4
2023-02-19T13:20:25.869Z,21.4
2023-02-19T13:21:27.288Z,21.3
2023-02-19T13:22:28.912Z,21.2
2023-02-19T13:23:30.317Z,21.3
2023-02-19T13:24:31.729Z,21.2
2023-02-19T13:25:33.134Z,21.3
2023-02-19T13:26:34.509Z,21.3
2023-02-19T13:27:35.926Z,21.3
2023-02-19T13:28:37.359Z,21.3
2023-02-19T13:29:38.798Z,21.3
2023-02-19T13:30:40.295Z,21.3
2023-02-19T13:31:42.236Z,21.4
2023-02-19T13:32:44.032Z,21.3
2023-02-19T13:33:45.419Z,21.4
2023-02-19T13:34:46.845Z,21.3
2023-02-19T13:35:48.232Z,21.3
2023-02-19T13:36:49.646Z,21.3
2023-02-19T13:37:51.049Z,21.3
2023-02-19T13:38:52.464Z,21.3
2023-02-19T13:39:53.915Z,21.3
2023-02-19T13:40:55.365Z,21.3
2023-02-19T13:41:56.795Z,21.3